Time;durP1;ratioP1;P1;durP2;ratioP2;P2;SDS_P1;SDS_P2;PMS_P1;PMS_P2;Temp;Humidity;BMP_temperature;BMP_pressure;BME280_temperature;BME280_humidity;BME280_pressure;Samples;Min_cycle;Max_cycle;Signal;HPM_P1;HPM_P2
2022/01/21 00:01:33;;;;;;;;;9.75;5.00;;;;;5.69;76.01;103384.53;5108921;27;45581;-71
2022/01/21 00:03:58;;;;;;;;;6.50;5.50;;;;;5.60;75.92;103379.16;5094126;27;47323;-71
2022/01/21 00:06:24;;;;;;;;;6.00;5.50;;;;;5.59;76.59;103386.09;5096029;27;45417;-71
2022/01/21 00:08:51;;;;;;;;;5.25;5.25;;;;;5.56;76.37;103379.94;5098169;27;51777;-71
2022/01/21 00:11:17;;;;;;;;;9.00;6.00;;;;;5.53;76.32;103378.13;5093057;27;45427;-71
2022/01/21 00:13:44;;;;;;;;;8.00;4.00;;;;;5.50;76.51;103386.78;5102364;27;45612;-71
2022/01/21 00:16:14;;;;;;;;;8.00;4.00;;;;;5.45;76.43;103380.59;5105374;27;45940;-71
2022/01/21 00:18:45;;;;;;;;;4.75;4.75;;;;;5.39;76.54;103390.91;5098847;27;45427;-71
2022/01/21 00:32:08;;;;;;;;;7.25;3.50;;;;;5.01;77.58;103369.19;5092460;27;45238;-71
2022/01/21 00:34:34;;;;;;;;;5.50;3.00;;;;;4.97;77.23;103365.66;5095318;27;46356;-71
2022/01/21 00:37:00;;;;;;;;;7.00;4.25;;;;;4.91;77.45;103356.84;5092524;27;45935;-71
2022/01/21 00:39:29;;;;;;;;;6.00;4.50;;;;;4.87;77.73;103361.09;5093093;27;45850;-71
2022/01/21 00:42:05;;;;;;;;;2.00;2.00;;;;;4.88;77.92;103368.03;5090562;27;45387;-71
2022/01/21 00:44:31;;;;;;;;;5.00;3.00;;;;;4.92;78.11;103367.28;5091146;27;45659;-71
2022/01/21 00:46:56;;;;;;;;;3.00;3.00;;;;;4.94;78.18;103355.16;5094919;27;45360;-71
2022/01/21 00:49:22;;;;;;;;;6.25;3.00;;;;;4.95;77.96;103361.25;5098569;27;45474;-71
2022/01/21 00:51:48;;;;;;;;;5.50;4.00;;;;;4.94;78.06;103364.69;5092611;27;45442;-70
2022/01/21 00:54:14;;;;;;;;;8.25;4.25;;;;;4.93;78.22;103363.81;5092306;27;46154;-71
2022/01/21 00:56:39;;;;;;;;;5.00;5.00;;;;;4.94;78.42;103357.75;5092983;27;45549;-70
2022/01/21 00:59:04;;;;;;;;;5.00;5.00;;;;;4.96;79.00;103361.28;5090763;27;45390;-71
2022/01/21 01:01:30;;;;;;;;;7.25;5.00;;;;;5.01;78.47;103366.59;5093430;27;45411;-71
2022/01/21 01:03:55;;;;;;;;;8.50;7.00;;;;;5.02;78.31;103370.09;5094405;27;46262;-71
2022/01/21 01:06:20;;;;;;;;;4.50;4.50;;;;;5.04;78.67;103363.19;5100121;27;45426;-71
2022/01/21 01:08:48;;;;;;;;;4.75;3.00;;;;;5.05;78.21;103367.53;5107625;27;45471;-71
2022/01/21 01:11:19;;;;;;;;;7.50;7.00;;;;;5.01;78.36;103361.38;5096300;27;45382;-71
2022/01/21 01:21:45;;;;;;;;;7.50;5.75;;;;;4.88;78.61;103354.16;5105006;27;45584;-69
2022/01/21 01:29:26;;;;;;;;;4.75;4.00;;;;;4.85;78.68;103359.28;5097058;27;45533;-69
2022/01/21 01:31:52;;;;;;;;;10.50;7.50;;;;;4.82;79.16;103357.50;5096396;27;45641;-69
2022/01/21 01:34:18;;;;;;;;;8.25;5.00;;;;;4.77;79.12;103364.31;5100598;27;45449;-69
2022/01/21 01:36:45;;;;;;;;;4.25;4.00;;;;;4.71;78.79;103358.97;5108695;27;45607;-69
2022/01/21 01:39:37;;;;;;;;;8.00;4.00;;;;;4.66;79.08;103360.59;5102034;27;45529;-69
2022/01/21 01:50:04;;;;;;;;;5.75;4.75;;;;;4.82;79.49;103367.91;5111876;27;45308;-69
2022/01/21 01:52:29;;;;;;;;;7.75;4.50;;;;;4.85;79.53;103375.78;5097181;27;45426;-69
2022/01/21 01:54:56;;;;;;;;;4.50;4.00;;;;;4.83;79.18;103377.47;5097098;27;46538;-69
2022/01/21 01:57:21;;;;;;;;;8.50;6.00;;;;;4.80;79.08;103373.91;5103067;27;45467;-69
2022/01/21 01:59:47;;;;;;;;;9.50;5.25;;;;;4.74;79.10;103381.59;5095647;27;45506;-69
2022/01/21 02:02:16;;;;;;;;;5.00;4.75;;;;;4.69;79.39;103381.47;5094788;27;45486;-69
2022/01/21 02:04:43;;;;;;;;;5.50;4.25;;;;;4.63;79.56;103381.34;5113050;27;46780;-69
2022/01/21 02:07:09;;;;;;;;;7.75;4.75;;;;;4.59;79.76;103377.78;5099166;27;45970;-69
2022/01/21 02:09:36;;;;;;;;;6.75;4.75;;;;;4.52;79.66;103365.47;5094108;27;45539;-69
2022/01/21 02:12:02;;;;;;;;;7.50;5.75;;;;;4.47;79.70;103374.88;5103486;27;45415;-69
2022/01/21 02:14:35;;;;;;;;;6.25;3.75;;;;;4.43;79.98;103376.50;5094296;27;46830;-69
2022/01/21 02:22:22;;;;;;;;;8.25;5.25;;;;;4.29;80.46;103375.31;5094506;27;45367;-69
2022/01/21 02:24:55;;;;;;;;;8.75;7.25;;;;;4.23;80.58;103376.84;5094858;27;45352;-69
2022/01/21 02:27:21;;;;;;;;;9.25;6.00;;;;;4.24;80.85;103376.94;5094837;27;45453;-69
2022/01/21 02:29:49;;;;;;;;;7.50;4.75;;;;;4.21;80.70;103376.84;5099583;27;45554;-69
2022/01/21 02:32:16;;;;;;;;;10.75;7.25;;;;;4.16;80.58;103368.03;5093586;27;45605;-69
2022/01/21 02:34:43;;;;;;;;;7.00;4.00;;;;;4.13;80.81;103381.84;5105158;27;46484;-69
2022/01/21 02:37:11;;;;;;;;;9.50;5.00;;;;;4.10;80.89;103386.09;5094709;27;45514;-69
2022/01/21 02:39:36;;;;;;;;;5.75;4.00;;;;;4.08;80.98;103377.38;5094089;27;47905;-69
2022/01/21 02:42:01;;;;;;;;;5.50;5.00;;;;;4.05;80.78;103375.56;5091218;27;51971;-69
2022/01/21 02:44:27;;;;;;;;;7.50;5.00;;;;;3.95;80.99;103363.13;5094762;27;46466;-69
2022/01/21 02:46:56;;;;;;;;;6.50;4.00;;;;;4.00;81.07;103379.75;5095418;27;45455;-69
2022/01/21 02:49:22;;;;;;;;;7.75;5.25;;;;;3.86;81.24;103358.59;5096469;27;45435;-69
2022/01/21 02:51:48;;;;;;;;;12.00;7.25;;;;;3.91;81.16;103372.59;5094725;27;45496;-69
2022/01/21 02:54:13;;;;;;;;;5.25;5.25;;;;;3.91;81.61;103372.59;5093599;27;45949;-69
2022/01/21 02:56:39;;;;;;;;;7.50;6.75;;;;;3.92;81.49;103376.97;5093952;27;45413;-69
2022/01/21 02:59:07;;;;;;;;;8.00;5.50;;;;;3.90;81.16;103373.41;5093229;27;45455;-69
2022/01/21 03:01:35;;;;;;;;;8.00;6.75;;;;;3.87;81.27;103368.16;5095549;27;45602;-69
2022/01/21 03:04:01;;;;;;;;;5.00;5.00;;;;;3.86;81.47;103369.00;5093891;27;45460;-69
2022/01/21 03:06:27;;;;;;;;;8.25;7.00;;;;;3.78;81.58;103360.09;5092572;27;45865;-69
2022/01/21 03:08:54;;;;;;;;;7.50;7.50;;;;;3.80;81.48;103378.34;5093708;27;45416;-69
2022/01/21 03:11:22;;;;;;;;;11.50;7.25;;;;;3.75;81.76;103375.59;5092778;27;45455;-69
2022/01/21 03:13:47;;;;;;;;;9.50;7.00;;;;;3.75;81.67;103373.00;5095214;27;45690;-69
2022/01/21 03:16:13;;;;;;;;;13.75;5.00;;;;;3.72;81.98;103375.53;5093955;27;45701;-69
2022/01/21 03:18:39;;;;;;;;;11.25;4.00;;;;;3.72;82.27;103378.13;5098751;27;47737;-69
2022/01/21 03:21:05;;;;;;;;;9.50;5.00;;;;;3.69;82.01;103382.38;5093543;27;45541;-69
2022/01/21 03:23:30;;;;;;;;;8.50;5.00;;;;;3.68;82.11;103386.69;5093156;27;45372;-69
2022/01/21 03:25:56;;;;;;;;;7.75;5.50;;;;;3.52;82.27;103366.28;5093381;27;45403;-69
2022/01/21 03:28:22;;;;;;;;;10.50;6.50;;;;;3.58;81.92;103379.47;5104957;27;45462;-69
2022/01/21 03:30:50;;;;;;;;;5.75;5.00;;;;;3.60;82.25;103390.78;5095312;27;45499;-69
2022/01/21 03:33:16;;;;;;;;;9.75;7.25;;;;;3.57;82.63;103396.78;5098447;27;47140;-69
2022/01/21 03:35:42;;;;;;;;;6.00;6.00;;;;;3.56;82.61;103395.03;5095837;27;45503;-69
2022/01/21 03:38:07;;;;;;;;;9.25;4.25;;;;;3.47;82.35;103378.28;5097092;27;45639;-69
2022/01/21 03:40:32;;;;;;;;;7.25;7.25;;;;;3.55;82.59;103392.34;5111073;27;45559;-69
2022/01/21 03:42:58;;;;;;;;;7.25;4.25;;;;;3.52;82.30;103397.50;5102938;27;45484;-69
2022/01/21 03:45:24;;;;;;;;;8.50;7.50;;;;;3.51;82.56;103399.22;5098785;27;45374;-71
2022/01/21 03:47:49;;;;;;;;;6.00;4.00;;;;;3.50;82.42;103400.06;5093068;27;45468;-71
2022/01/21 03:50:32;;;;;;;;;4.75;4.75;;;;;3.48;82.18;103406.03;5099215;27;45456;-71
2022/01/21 03:53:02;;;;;;;;;7.50;5.00;;;;;3.53;82.80;103410.53;5097781;27;45454;-71
2022/01/21 03:55:28;;;;;;;;;4.00;1.75;;;;;3.63;82.55;103416.88;5106564;27;45778;-71
2022/01/21 03:57:54;;;;;;;;;7.50;5.50;;;;;3.68;82.97;103407.50;5095540;27;45528;-71
2022/01/21 04:00:32;;;;;;;;;7.75;6.50;;;;;3.82;82.56;103407.88;5098440;27;45810;-71
2022/01/21 04:02:58;;;;;;;;;7.75;6.50;;;;;3.85;82.83;103395.81;5098377;27;45654;-71
2022/01/21 04:05:24;;;;;;;;;11.50;5.50;;;;;3.92;82.80;103402.97;5097719;27;46016;-71
2022/01/21 04:07:50;;;;;;;;;7.00;7.00;;;;;3.95;82.45;103409.09;5094896;27;45422;-71
2022/01/21 04:10:15;;;;;;;;;5.50;3.00;;;;;3.99;82.79;103403.13;5105702;27;45426;-71
2022/01/21 04:12:40;;;;;;;;;7.25;4.00;;;;;4.06;82.46;103403.34;5097241;27;46556;-71
2022/01/21 04:15:07;;;;;;;;;7.25;4.75;;;;;4.11;82.25;103406.94;5099307;27;47643;-71
2022/01/21 04:17:32;;;;;;;;;11.25;7.00;;;;;4.18;82.27;103405.41;5106062;27;45314;-71
2022/01/21 04:19:57;;;;;;;;;4.75;2.50;;;;;4.20;82.05;103408.91;5097668;27;45317;-72
2022/01/21 04:22:23;;;;;;;;;7.67;5.00;;;;;4.27;82.53;103407.34;5101812;27;57344;-71
2022/01/21 04:24:49;;;;;;;;;7.50;4.75;;;;;4.30;82.48;103415.25;5101695;27;45858;-71
2022/01/21 04:27:18;;;;;;;;;4.25;4.25;;;;;4.36;82.24;103416.28;5100667;27;45773;-71
2022/01/21 04:29:44;;;;;;;;;8.50;6.75;;;;;4.39;81.93;103421.56;5095434;27;45557;-71
2022/01/21 04:32:10;;;;;;;;;7.25;6.00;;;;;4.40;82.06;103412.03;5104282;27;45522;-71
2022/01/21 04:34:36;;;;;;;;;10.75;8.25;;;;;4.47;81.88;103418.28;5102868;27;45438;-71
2022/01/21 04:37:05;;;;;;;;;9.50;6.25;;;;;4.50;81.91;103428.78;5076165;27;45473;-71
2022/01/21 04:39:36;;;;;;;;;15.00;6.50;;;;;4.48;81.43;103417.41;5092182;27;45384;-71
2022/01/21 04:47:31;;;;;;;;;4.00;4.00;;;;;4.50;81.74;103400.13;5106988;27;45384;-71
2022/01/21 04:49:57;;;;;;;;;10.25;7.00;;;;;4.59;81.55;103402.94;5096976;27;45371;-71
2022/01/21 04:52:24;;;;;;;;;8.00;6.75;;;;;4.62;81.21;103409.13;5098030;27;45429;-71
2022/01/21 04:54:50;;;;;;;;;7.75;7.75;;;;;4.63;81.56;103408.25;5097497;27;45981;-71
2022/01/21 04:57:16;;;;;;;;;5.00;4.00;;;;;4.68;81.48;103416.19;5097972;27;45541;-71
2022/01/21 04:59:42;;;;;;;;;5.00;3.50;;;;;4.62;81.34;103406.50;5079015;27;45891;-71
2022/01/21 05:02:08;;;;;;;;;4.50;4.50;;;;;4.67;80.91;103409.22;5112316;27;46307;-71
2022/01/21 05:04:34;;;;;;;;;8.00;5.00;;;;;4.65;80.83;103414.41;5108387;27;45341;-71
2022/01/21 05:07:02;;;;;;;;;11.25;5.75;;;;;4.67;81.21;103417.94;5107399;27;45296;-71
2022/01/21 05:09:32;;;;;;;;;5.00;5.00;;;;;4.69;80.71;103423.16;5100379;27;45621;-71
2022/01/21 05:11:59;;;;;;;;;5.50;5.00;;;;;4.71;81.21;103424.09;5100115;27;45533;-71
2022/01/21 05:14:45;;;;;;;;;5.25;5.25;;;;;4.66;81.40;103407.47;5100387;27;45994;-71
2022/01/21 05:17:12;;;;;;;;;7.00;6.50;;;;;4.75;80.75;103417.22;5091952;27;45359;-71
2022/01/21 05:19:37;;;;;;;;;6.50;4.50;;;;;4.70;81.02;103423.22;5107395;27;45402;-71
2022/01/21 05:22:03;;;;;;;;;7.75;5.25;;;;;4.75;81.05;103423.34;5098198;27;45592;-71
2022/01/21 05:24:29;;;;;;;;;7.75;5.00;;;;;4.74;81.04;103418.06;5106834;27;45321;-71
2022/01/21 05:26:57;;;;;;;;;8.00;5.50;;;;;4.68;80.80;103416.19;5105160;27;45541;-71
2022/01/21 05:29:28;;;;;;;;;7.25;4.75;;;;;4.68;81.09;103424.00;5103997;27;45558;-71
2022/01/21 05:31:54;;;;;;;;;13.00;5.00;;;;;4.69;80.93;103418.81;5112458;27;45695;-71
2022/01/21 05:34:20;;;;;;;;;4.75;4.75;;;;;4.70;81.12;103428.44;5104582;27;45963;-71
2022/01/21 05:36:46;;;;;;;;;7.33;6.00;;;;;4.72;80.98;103433.66;5101262;27;47683;-71
2022/01/21 05:39:12;;;;;;;;;10.00;5.00;;;;;4.67;80.74;103425.75;5098781;27;45809;-71
2022/01/21 05:41:39;;;;;;;;;5.75;4.50;;;;;4.69;80.77;103441.41;5106732;27;46478;-71
2022/01/21 05:46:22;;;;;;;;;7.50;4.75;;;;;4.64;80.68;103436.06;5105672;27;45430;-71
2022/01/21 05:46:55;;;;;;;;;7.00;5.75;;;;;4.62;80.54;103435.16;5096715;27;45453;-71
2022/01/21 05:49:26;;;;;;;;;4.25;4.25;;;;;4.61;80.68;103442.94;5096683;27;45461;-71
2022/01/21 05:51:53;;;;;;;;;5.00;4.50;;;;;4.59;80.76;103437.69;5101084;27;45595;-71
2022/01/21 05:54:25;;;;;;;;;4.75;4.75;;;;;4.58;80.89;103442.84;5105714;27;45541;-71
2022/01/21 05:56:51;;;;;;;;;9.00;4.75;;;;;4.58;80.71;103450.66;5080409;27;45504;-71
2022/01/21 05:59:16;;;;;;;;;4.25;4.25;;;;;4.54;80.97;103441.00;5094930;27;45494;-71
2022/01/21 06:01:41;;;;;;;;;9.25;5.00;;;;;4.53;80.88;103441.84;5112538;27;45465;-71
2022/01/21 06:04:07;;;;;;;;;5.75;5.00;;;;;4.56;80.73;103463.66;5094732;27;45388;-71
2022/01/21 06:06:33;;;;;;;;;5.25;5.25;;;;;4.48;80.96;103446.06;5094704;27;45506;-71
2022/01/21 06:08:58;;;;;;;;;5.00;5.00;;;;;4.39;80.76;103451.94;5103311;27;45525;-71
2022/01/21 06:11:24;;;;;;;;;6.75;4.00;;;;;4.38;80.72;103461.44;5106539;27;46453;-71
2022/01/21 06:13:50;;;;;;;;;7.50;5.25;;;;;4.34;81.22;103453.53;5102250;27;45562;-71
2022/01/21 06:16:17;;;;;;;;;11.00;5.00;;;;;4.34;81.00;103462.22;5099055;27;45469;-71
2022/01/21 06:18:43;;;;;;;;;4.25;4.25;;;;;4.34;81.34;103464.81;5094947;27;45309;-71
2022/01/21 06:21:08;;;;;;;;;11.00;2.50;;;;;4.33;81.14;103459.56;5076757;27;47412;-71
2022/01/21 06:23:34;;;;;;;;;7.75;4.75;;;;;4.32;80.95;103466.50;5093155;27;45308;-71
2022/01/21 06:25:59;;;;;;;;;7.00;5.50;;;;;4.29;80.65;103462.94;5107016;27;45559;-71
2022/01/21 06:28:25;;;;;;;;;11.75;7.00;;;;;4.21;81.16;103462.72;5098651;27;45486;-71
2022/01/21 06:30:50;;;;;;;;;5.75;4.50;;;;;4.20;81.51;103463.56;5100829;27;46021;-71
2022/01/21 06:33:16;;;;;;;;;10.50;5.00;;;;;4.15;81.60;103457.34;5097775;27;45536;-71
2022/01/21 06:35:41;;;;;;;;;8.00;6.00;;;;;4.10;81.13;103462.44;5094080;27;45370;-71
2022/01/21 06:38:06;;;;;;;;;7.25;6.00;;;;;4.02;81.42;103457.84;5102862;27;45539;-71
2022/01/21 06:40:32;;;;;;;;;7.50;7.50;;;;;4.02;81.66;103460.44;5106282;27;45448;-71
2022/01/21 06:43:01;;;;;;;;;5.00;4.75;;;;;3.96;81.54;103466.38;5110258;27;45493;-71
2022/01/21 06:45:27;;;;;;;;;7.25;4.00;;;;;3.92;81.30;103461.94;5102898;27;45757;-71
2022/01/21 06:47:52;;;;;;;;;6.50;5.50;;;;;3.88;81.85;103462.69;5102768;27;45585;-71
2022/01/21 06:50:18;;;;;;;;;5.50;2.00;;;;;3.85;82.04;103473.00;5098847;27;45805;-71
2022/01/21 06:52:43;;;;;;;;;7.50;4.75;;;;;3.90;81.74;103477.47;5108519;27;45432;-71
2022/01/21 06:55:09;;;;;;;;;7.00;4.50;;;;;3.96;82.23;103486.31;5100343;27;45532;-71
2022/01/21 06:57:38;;;;;;;;;6.75;4.50;;;;;4.01;82.16;103490.78;5098746;27;45733;-71
2022/01/21 07:00:07;;;;;;;;;12.75;6.50;;;;;4.11;82.39;103494.53;5094223;27;45407;-71
2022/01/21 07:02:32;;;;;;;;;5.50;5.50;;;;;4.16;81.98;103492.94;5107405;27;45863;-71
2022/01/21 07:04:57;;;;;;;;;6.50;5.00;;;;;4.21;82.30;103493.09;5107141;27;45596;-71
2022/01/21 07:07:23;;;;;;;;;4.33;4.00;;;;;4.27;82.27;103506.25;5108556;27;56251;-71
2022/01/21 07:09:48;;;;;;;;;7.00;5.00;;;;;4.31;81.91;103511.59;5099183;27;46210;-72
2022/01/21 07:12:14;;;;;;;;;7.00;5.00;;;;;4.34;81.71;103511.69;5098024;27;45431;-71
2022/01/21 07:14:39;;;;;;;;;5.00;4.00;;;;;4.38;81.92;103502.22;5107706;27;45497;-68
2022/01/21 07:17:05;;;;;;;;;6.25;6.25;;;;;4.25;81.85;103479.31;5103672;27;45302;-71
2022/01/21 07:19:30;;;;;;;;;7.75;4.50;;;;;4.46;82.12;103508.53;5095464;27;46565;-71
2022/01/21 07:21:56;;;;;;;;;5.75;5.75;;;;;4.47;81.93;103499.88;5094478;27;45343;-70
2022/01/21 07:24:21;;;;;;;;;10.75;7.00;;;;;4.51;81.94;103506.06;5093572;27;45489;-71
2022/01/21 07:26:47;;;;;;;;;15.00;9.00;;;;;4.52;81.59;103508.69;5100637;27;53662;-69
2022/01/21 07:29:12;;;;;;;;;8.25;7.00;;;;;4.56;81.64;103509.66;5096367;27;46481;-69
2022/01/21 07:31:38;;;;;;;;;7.25;7.00;;;;;4.60;81.68;103508.91;5102671;27;45493;-70
2022/01/21 07:34:06;;;;;;;;;9.00;8.00;;;;;4.63;81.58;103515.06;5097078;27;45302;-68
2022/01/21 07:36:33;;;;;;;;;10.50;5.75;;;;;4.62;81.61;103508.09;5094096;27;45406;-69
2022/01/21 07:38:58;;;;;;;;;8.50;5.25;;;;;4.68;81.38;103515.19;5091916;27;46369;-70
2022/01/21 07:41:24;;;;;;;;;7.00;5.75;;;;;4.72;81.46;103519.63;5102558;27;45332;-69
2022/01/21 07:43:52;;;;;;;;;7.00;5.00;;;;;4.70;81.10;103516.13;5097825;27;45641;-69
2022/01/21 07:46:19;;;;;;;;;8.00;7.00;;;;;4.76;81.42;103516.28;5094833;27;45458;-69
2022/01/21 07:48:44;;;;;;;;;10.75;10.75;;;;;4.77;80.97;103527.56;5079555;27;46640;-69
2022/01/21 07:51:09;;;;;;;;;7.50;6.50;;;;;4.70;81.35;103514.41;5093352;27;45490;-69
2022/01/21 07:53:35;;;;;;;;;11.75;6.75;;;;;4.84;81.19;103530.34;5093393;27;45430;-69
2022/01/21 07:56:01;;;;;;;;;5.75;5.75;;;;;4.84;80.95;103526.88;5093646;27;45323;-70
2022/01/21 07:58:27;;;;;;;;;12.75;7.75;;;;;4.89;81.29;103533.09;5095953;27;45494;-69
2022/01/21 08:00:52;;;;;;;;;4.75;4.75;;;;;4.88;80.75;103537.41;5091577;27;45375;-69
2022/01/21 08:03:18;;;;;;;;;1.25;1.00;;;;;4.90;80.97;103540.06;5092955;27;45541;-69
2022/01/21 08:05:44;;;;;;;;;9.00;9.00;;;;;4.94;81.24;103541.91;5095977;27;45781;-69
2022/01/21 08:08:10;;;;;;;;;8.75;5.75;;;;;4.97;80.63;103544.59;5093596;27;46121;-69
2022/01/21 08:10:35;;;;;;;;;12.75;8.75;;;;;5.01;80.60;103537.72;5107895;27;45528;-69
2022/01/21 08:13:01;;;;;;;;;11.50;9.50;;;;;5.06;80.82;103550.03;5104699;27;45351;-70
2022/01/21 08:15:27;;;;;;;;;12.25;8.00;;;;;5.06;80.52;103554.34;5104685;27;45362;-70
2022/01/21 08:17:52;;;;;;;;;11.25;8.25;;;;;5.12;80.65;103559.75;5094094;27;46639;-69
2022/01/21 08:20:17;;;;;;;;;11.25;8.00;;;;;5.16;80.61;103545.91;5097127;27;45451;-70
2022/01/21 08:22:43;;;;;;;;;70.75;54.50;;;;;5.16;80.14;103538.97;5106196;27;45371;-69
2022/01/21 08:25:08;;;;;;;;;107.33;83.00;;;;;5.21;80.20;103546.91;5097116;27;45261;-69
2022/01/21 08:27:35;;;;;;;;;38.50;33.00;;;;;5.24;80.52;103557.44;5099477;27;45931;-69
2022/01/21 08:30:00;;;;;;;;;79.50;61.00;;;;;5.25;80.43;103546.16;5095778;27;45889;-69
2022/01/21 08:32:26;;;;;;;;;205.50;162.25;;;;;5.30;80.56;103546.25;5106621;27;45471;-69
2022/01/21 08:34:51;;;;;;;;;67.50;48.75;;;;;5.35;80.31;103550.75;5096944;27;45378;-69
2022/01/21 08:37:18;;;;;;;;;22.25;19.50;;;;;5.42;79.73;103551.75;5103157;27;45619;-69
2022/01/21 08:39:43;;;;;;;;;36.50;26.25;;;;;5.37;80.23;103536.00;5098944;27;45462;-69
2022/01/21 08:42:10;;;;;;;;;169.33;134.00;;;;;5.44;79.79;103550.97;5092622;27;45578;-70
2022/01/21 08:44:35;;;;;;;;;82.25;61.75;;;;;5.50;79.85;103550.22;5083438;27;45456;-70
2022/01/21 08:47:01;;;;;;;;;24.50;18.75;;;;;5.48;79.46;103558.03;5082250;27;46607;-70
2022/01/21 08:49:27;;;;;;;;;7.00;7.00;;;;;5.49;79.60;103571.94;5092894;27;45439;-70
2022/01/21 08:51:55;;;;;;;;;32.00;27.00;;;;;5.52;79.57;103561.56;5096557;27;45472;-69
2022/01/21 08:54:21;;;;;;;;;18.25;17.25;;;;;5.59;79.55;103560.00;5085284;27;45866;-69
2022/01/21 08:56:48;;;;;;;;;15.00;8.75;;;;;5.66;79.43;103559.28;5081632;27;45591;-69
2022/01/21 08:59:16;;;;;;;;;9.00;6.50;;;;;5.60;79.51;103538.28;5079442;27;45952;-70
2022/01/21 09:01:43;;;;;;;;;23.75;17.50;;;;;5.79;79.30;103555.19;5076311;27;45401;-70
2022/01/21 09:04:08;;;;;;;;;22.50;19.50;;;;;5.87;79.08;103554.53;5093408;27;45398;-70
2022/01/21 09:06:33;;;;;;;;;31.50;27.00;;;;;5.94;78.98;103556.44;5075451;27;47589;-70
2022/01/21 09:08:59;;;;;;;;;62.75;50.25;;;;;5.95;78.94;103566.06;5091540;27;45510;-70
2022/01/21 09:11:25;;;;;;;;;17.25;17.00;;;;;6.00;78.82;103561.81;5080031;27;45510;-69
2022/01/21 09:13:51;;;;;;;;;41.75;33.75;;;;;6.05;78.74;103553.19;5101381;27;45327;-70
2022/01/21 09:16:18;;;;;;;;;13.75;11.75;;;;;6.11;78.62;103559.44;5095939;27;45946;-69
2022/01/21 09:18:49;;;;;;;;;27.50;22.50;;;;;6.18;78.76;103568.28;5070273;27;45913;-69
2022/01/21 09:21:18;;;;;;;;;26.50;19.75;;;;;6.26;78.99;103567.59;5095635;27;45574;-70
2022/01/21 09:23:47;;;;;;;;;12.75;12.00;;;;;6.38;78.51;103564.34;5095099;27;45574;-70
2022/01/21 09:26:13;;;;;;;;;36.75;28.00;;;;;6.44;78.52;103561.84;5095181;27;45387;-69
2022/01/21 09:28:39;;;;;;;;;20.00;18.75;;;;;6.56;78.17;103563.78;5097861;27;45972;-70
2022/01/21 09:31:04;;;;;;;;;38.50;29.25;;;;;6.61;78.38;103562.16;5094084;27;45657;-70
2022/01/21 09:33:30;;;;;;;;;23.00;18.50;;;;;6.72;77.95;103572.81;5096044;27;45320;-70
2022/01/21 09:35:55;;;;;;;;;17.25;15.00;;;;;6.72;78.02;103570.19;5097038;27;46468;-70
2022/01/21 09:38:21;;;;;;;;;19.00;18.25;;;;;6.73;77.92;103569.31;5108484;27;45561;-70
2022/01/21 09:40:48;;;;;;;;;23.25;16.25;;;;;6.75;77.48;103570.25;5096648;27;45430;-70
2022/01/21 09:43:15;;;;;;;;;16.25;12.50;;;;;6.72;77.31;103581.53;5096379;27;45518;-69
2022/01/21 09:45:41;;;;;;;;;24.00;20.75;;;;;6.70;77.55;103582.34;5095596;27;46356;-70
2022/01/21 09:48:08;;;;;;;;;12.25;10.00;;;;;6.71;77.56;103594.56;5095411;27;45415;-70
2022/01/21 09:50:34;;;;;;;;;10.25;8.50;;;;;6.70;77.09;103611.09;5095308;27;45632;-70
2022/01/21 09:53:02;;;;;;;;;33.75;27.50;;;;;6.69;77.26;103612.84;5095366;27;45671;-71
2022/01/21 09:55:27;;;;;;;;;38.50;32.25;;;;;6.60;77.34;103611.78;5096570;27;45501;-70
2022/01/21 09:57:55;;;;;;;;;36.00;25.75;;;;;6.71;77.23;103623.31;5094998;27;45475;-71
2022/01/21 10:00:23;;;;;;;;;102.50;76.00;;;;;6.72;77.32;103615.50;5088849;27;45406;-70
2022/01/21 10:02:51;;;;;;;;;17.25;12.00;;;;;6.75;77.12;103606.84;5080656;27;45456;-70
2022/01/21 10:05:17;;;;;;;;;18.75;9.50;;;;;6.82;76.90;103619.16;5093607;27;45533;-69
2022/01/21 10:07:47;;;;;;;;;15.75;12.25;;;;;6.87;76.85;103622.75;5092579;27;45433;-70
2022/01/21 10:10:14;;;;;;;;;14.50;13.00;;;;;6.99;77.18;103622.97;5082736;27;45355;-70
2022/01/21 10:12:44;;;;;;;;;19.50;14.00;;;;;7.07;76.60;103607.44;5082439;27;45443;-69
2022/01/21 10:15:10;;;;;;;;;16.00;16.00;;;;;7.18;76.92;103616.34;5088496;27;46150;-69
2022/01/21 10:17:36;;;;;;;;;21.75;18.00;;;;;7.28;76.72;103618.25;5076604;27;45754;-69
2022/01/21 10:20:17;;;;;;;;;30.50;19.50;;;;;7.37;76.35;103620.16;5094114;27;47651;-69
2022/01/21 10:23:03;;;;;;;;;10.50;10.50;;;;;7.49;76.32;103632.56;5074545;27;45428;-70
2022/01/21 10:25:31;;;;;;;;;13.50;12.50;;;;;7.50;75.74;103627.34;5095743;27;45638;-69
2022/01/21 10:28:14;;;;;;;;;18.00;12.50;;;;;7.56;75.13;103629.16;5089763;27;45867;-70
2022/01/21 10:30:40;;;;;;;;;20.00;17.00;;;;;7.63;75.29;103619.69;5091697;27;45423;-70
2022/01/21 10:33:56;;;;;;;;;13.25;10.50;;;;;7.75;75.25;103618.13;5099520;27;45546;-70
2022/01/21 10:36:26;;;;;;;;;16.75;13.75;;;;;7.90;74.99;103621.84;5086236;27;45424;-70
2022/01/21 10:38:56;;;;;;;;;16.75;14.25;;;;;8.04;74.64;103605.47;5091104;27;45882;-70
2022/01/21 10:41:30;;;;;;;;;15.75;15.00;;;;;8.21;74.50;103610.03;5077856;27;45494;-70
2022/01/21 10:44:11;;;;;;;;;18.00;13.50;;;;;8.29;74.40;103609.25;5092524;27;45469;-70
2022/01/21 10:46:39;;;;;;;;;29.25;27.75;;;;;8.39;73.56;103619.91;5095972;27;45448;-70
2022/01/21 10:49:10;;;;;;;;;21.75;15.25;;;;;8.45;73.51;103612.97;5080488;27;45352;-69
2022/01/21 10:51:38;;;;;;;;;14.50;14.50;;;;;8.42;73.41;103623.44;5084517;27;45590;-70
2022/01/21 10:54:22;;;;;;;;;24.00;19.25;;;;;8.33;73.11;103620.66;5092557;27;45253;-70
2022/01/21 10:57:17;;;;;;;;;12.00;11.00;;;;;8.23;73.17;103613.56;5081514;27;46640;-70
2022/01/21 10:59:46;;;;;;;;;15.00;15.00;;;;;8.13;73.29;103607.31;5070847;27;45329;-69
2022/01/21 11:02:12;;;;;;;;;18.00;15.25;;;;;8.14;72.98;103597.72;5094567;27;45486;-70
2022/01/21 11:04:42;;;;;;;;;14.75;12.00;;;;;8.15;73.27;103604.72;5084944;27;45508;-69
2022/01/21 11:07:08;;;;;;;;;17.25;12.75;;;;;8.17;73.17;103600.38;5080845;27;45430;-70
2022/01/21 11:09:37;;;;;;;;;18.00;14.00;;;;;8.20;73.04;103601.31;5084348;27;45368;-69
2022/01/21 11:12:15;;;;;;;;;26.50;18.50;;;;;8.20;72.89;103600.44;5089702;27;45348;-69
2022/01/21 11:14:58;;;;;;;;;14.75;10.75;;;;;8.23;72.87;103608.31;5093499;27;45411;-69
2022/01/21 11:17:24;;;;;;;;;20.50;17.00;;;;;8.19;73.00;103601.25;5077778;27;46330;-69
2022/01/21 11:20:03;;;;;;;;;12.75;10.50;;;;;8.21;72.87;103603.06;5091649;27;46908;-69
2022/01/21 11:22:30;;;;;;;;;12.25;11.00;;;;;8.20;72.46;103605.66;5093657;27;45396;-69
2022/01/21 11:24:59;;;;;;;;;13.75;10.25;;;;;8.19;72.99;103606.50;5088877;27;45554;-70
2022/01/21 11:27:26;;;;;;;;;12.50;11.50;;;;;8.15;72.70;103595.13;5088784;27;47457;-70
2022/01/21 11:29:53;;;;;;;;;18.25;12.25;;;;;8.13;72.65;103596.81;5088611;27;45361;-69
2022/01/21 11:32:19;;;;;;;;;648.00;474.60;;;;;8.20;72.85;103592.56;5091816;27;45669;-69
2022/01/21 11:34:45;;;;;;;;;10.00;7.00;;;;;8.25;72.95;103602.25;5077110;27;45364;-69
2022/01/21 11:37:11;;;;;;;;;19.00;16.25;;;;;8.28;72.63;103593.53;5080265;27;47365;-69
2022/01/21 11:39:36;;;;;;;;;12.50;10.00;;;;;8.36;72.62;103592.81;5087191;27;45388;-69
2022/01/21 11:42:06;;;;;;;;;20.00;13.25;;;;;8.43;72.61;103590.25;5093673;27;45661;-69
2022/01/21 11:44:33;;;;;;;;;18.25;14.50;;;;;8.50;72.43;103592.06;5102763;27;45360;-69
2022/01/21 11:49:35;;;;;;;;;21.00;15.00;;;;;8.69;72.20;103578.31;5090248;27;45978;-70
2022/01/21 11:52:11;;;;;;;;;23.25;18.00;;;;;8.76;71.93;103579.25;5070771;27;45611;-69
2022/01/21 11:54:37;;;;;;;;;18.25;12.25;;;;;8.79;72.17;103581.91;5088330;27;45488;-69
2022/01/21 11:57:05;;;;;;;;;22.25;17.75;;;;;8.85;71.42;103584.59;5078220;27;45484;-70
2022/01/21 12:01:57;;;;;;;;;22.33;16.67;;;;;8.98;71.49;103583.84;5088048;27;45502;-69
2022/01/21 12:04:31;;;;;;;;;20.50;18.00;;;;;8.97;71.91;103584.69;5086783;27;45730;-70
2022/01/21 12:06:57;;;;;;;;;37.75;30.00;;;;;8.85;71.11;103584.59;5085235;27;46484;-70
2022/01/21 12:09:58;;;;;;;;;34.75;23.50;;;;;8.87;71.21;103594.25;5085147;27;45392;-70
2022/01/21 12:12:44;;;;;;;;;26.00;20.25;;;;;8.93;71.68;103577.69;5080123;27;45426;-69
2022/01/21 12:15:11;;;;;;;;;17.75;14.25;;;;;9.02;70.95;103583.00;5077007;27;45636;-69
2022/01/21 12:17:41;;;;;;;;;18.50;15.25;;;;;9.12;71.20;103592.69;5088160;27;46433;-69